Time;durP1;ratioP1;P1;durP2;ratioP2;P2;SDS_P1;SDS_P2;PMS_P1;PMS_P2;Temp;Humidity;BMP_temperature;BMP_pressure;BME280_temperature;BME280_humidity;BME280_pressure;Samples;Min_cycle;Max_cycle;Signal;HPM_P1;HPM_P2
2023/06/22 00:00:26;;;;;;;18.20;13.30;;;;;;;25.16;54.05;100366.37;108177;1251;68655;-67
2023/06/22 00:02:54;;;;;;;19.00;14.00;;;;;;;24.99;54.44;100366.39;108235;1253;73291;-67
2023/06/22 00:05:21;;;;;;;17.40;13.60;;;;;;;24.91;54.75;100366.94;108168;1256;60493;-67
2023/06/22 00:07:48;;;;;;;22.00;13.80;;;;;;;24.80;54.93;100367.63;108260;1251;60339;-68
2023/06/22 00:10:16;;;;;;;18.20;12.60;;;;;;;24.78;54.97;100370.80;108191;1251;72531;-67
2023/06/22 00:12:43;;;;;;;19.10;14.20;;;;;;;24.91;54.82;100369.80;108201;1251;71081;-68
2023/06/22 00:15:10;;;;;;;19.90;13.30;;;;;;;24.92;54.67;100373.45;108207;1256;72473;-67
2023/06/22 00:17:38;;;;;;;18.60;13.00;;;;;;;24.88;54.67;100370.58;108317;1251;60672;-66
2023/06/22 00:20:08;;;;;;;18.20;14.00;;;;;;;25.00;54.49;100372.04;108202;1251;60202;-67
2023/06/22 00:22:38;;;;;;;18.60;13.90;;;;;;;25.05;54.53;100375.91;108182;1251;74885;-68
2023/06/22 00:25:07;;;;;;;16.80;13.70;;;;;;;25.07;54.45;100375.14;108105;1251;70574;-67
2023/06/22 00:27:35;;;;;;;18.80;14.40;;;;;;;25.16;54.28;100377.40;108596;1253;71986;-67
2023/06/22 00:30:02;;;;;;;15.30;11.80;;;;;;;25.08;54.19;100381.67;108191;1251;60461;-67
2023/06/22 00:32:30;;;;;;;22.90;14.90;;;;;;;24.93;54.57;100379.33;108046;1251;60537;-65
2023/06/22 00:34:57;;;;;;;20.10;14.50;;;;;;;24.51;55.79;100380.70;108242;1251;73843;-65
2023/06/22 00:37:25;;;;;;;17.00;14.40;;;;;;;24.45;55.94;100382.15;108215;1251;69043;-66
2023/06/22 00:39:53;;;;;;;24.10;15.50;;;;;;;24.57;55.84;100385.02;108257;1254;71477;-65
2023/06/22 00:42:20;;;;;;;19.50;13.80;;;;;;;24.66;55.66;100383.85;108211;1251;60443;-63
2023/06/22 00:44:48;;;;;;;23.40;15.30;;;;;;;24.68;55.52;100379.01;108232;1251;60458;-67
2023/06/22 00:47:16;;;;;;;22.90;15.90;;;;;;;24.66;55.64;100380.52;108155;1252;72538;-64
2023/06/22 00:49:44;;;;;;;17.90;13.90;;;;;;;24.63;55.64;100384.79;108153;1253;69277;-66
2023/06/22 00:52:13;;;;;;;19.00;14.10;;;;;;;24.55;55.83;100384.30;108050;1253;72676;-67
2023/06/22 00:54:45;;;;;;;17.70;13.40;;;;;;;24.56;55.94;100387.30;108096;1254;60428;-66
2023/06/22 00:57:15;;;;;;;18.40;12.60;;;;;;;24.58;55.78;100392.27;108010;1253;60341;-67
2023/06/22 00:59:43;;;;;;;21.10;14.80;;;;;;;24.46;56.00;100387.80;108206;1252;73808;-68
2023/06/22 01:02:11;;;;;;;18.30;13.80;;;;;;;24.43;56.12;100389.24;108155;1253;70009;-68
2023/06/22 01:04:39;;;;;;;19.00;14.00;;;;;;;24.47;55.97;100388.20;108212;1256;72771;-67
2023/06/22 01:07:19;;;;;;;21.80;14.80;;;;;;;24.50;56.09;100389.42;108039;1254;60466;-67
2023/06/22 01:10:08;;;;;;;19.40;14.10;;;;;;;24.59;55.92;100392.86;107959;1253;60380;-67
2023/06/22 01:12:43;;;;;;;23.80;16.40;;;;;;;24.81;55.32;100388.50;107970;1253;74261;-68
2023/06/22 01:15:14;;;;;;;24.00;16.90;;;;;;;24.77;55.18;100390.00;108174;1253;68839;-66
2023/06/22 01:17:43;;;;;;;22.90;15.10;;;;;;;24.87;54.95;100395.02;107967;1255;72668;-67
2023/06/22 01:20:11;;;;;;;23.50;15.80;;;;;;;24.76;55.13;100393.10;108158;1251;61681;-67
2023/06/22 01:22:53;;;;;;;21.80;15.10;;;;;;;24.75;55.33;100393.06;107870;1254;60938;-68
2023/06/22 01:25:20;;;;;;;19.00;15.20;;;;;;;24.93;54.83;100388.48;107963;1253;72844;-67
2023/06/22 01:28:15;;;;;;;20.40;15.60;;;;;;;24.96;54.60;100390.35;108084;1254;69887;-67
2023/06/22 01:30:43;;;;;;;19.30;14.90;;;;;;;24.95;54.49;100390.27;108054;1252;72619;-68
2023/06/22 01:33:11;;;;;;;16.90;12.40;;;;;;;24.76;54.77;100394.97;108053;1254;61998;-68
2023/06/22 01:35:38;;;;;;;22.70;15.20;;;;;;;24.68;54.98;100397.05;107977;1259;60501;-67
2023/06/22 01:38:06;;;;;;;19.80;14.40;;;;;;;24.73;54.82;100393.00;107914;1254;73899;-68
2023/06/22 01:40:33;;;;;;;20.60;16.10;;;;;;;24.73;54.86;100398.61;107957;1254;68732;-68
2023/06/22 01:43:01;;;;;;;20.70;15.40;;;;;;;24.56;55.18;100403.94;108035;1254;72683;-67
2023/06/22 01:45:28;;;;;;;21.10;15.50;;;;;;;24.46;55.40;100400.73;107911;1257;60448;-68
2023/06/22 01:47:56;;;;;;;19.90;15.40;;;;;;;24.38;55.69;100400.65;108021;1258;60607;-69
2023/06/22 01:50:24;;;;;;;19.70;15.00;;;;;;;24.42;55.45;100400.89;107858;1259;72396;-68
2023/06/22 01:52:51;;;;;;;19.20;14.30;;;;;;;24.28;55.67;100396.56;108204;1251;69168;-68
2023/06/22 01:55:18;;;;;;;20.60;15.70;;;;;;;24.33;55.63;100398.81;108124;1251;73015;-67
2023/06/22 01:57:49;;;;;;;21.00;14.70;;;;;;;24.31;55.55;100399.67;108230;1251;61706;-67
2023/06/22 02:00:20;;;;;;;21.80;15.90;;;;;;;24.43;55.29;100402.49;108158;1251;60399;-69
2023/06/22 02:02:54;;;;;;;;;;;;;;;24.38;55.29;100400.91;108167;1251;73873;-68
2023/06/22 02:05:23;;;;;;;19.10;13.40;;;;;;;24.41;55.35;100399.35;108198;1251;68829;-66
2023/06/22 02:08:08;;;;;;;19.90;15.70;;;;;;;24.42;55.41;100396.39;108228;1254;72708;-67
2023/06/22 02:10:36;;;;;;;18.40;15.20;;;;;;;24.54;54.88;100397.27;108161;1253;61734;-67
2023/06/22 02:13:06;;;;;;;19.80;14.20;;;;;;;24.49;54.88;100396.33;108181;1251;60382;-67
2023/06/22 02:15:33;;;;;;;19.30;15.30;;;;;;;24.73;54.41;100393.91;108263;1256;72818;-67
2023/06/22 02:18:01;;;;;;;15.40;13.40;;;;;;;24.95;53.70;100397.26;108158;1257;68836;-66
2023/06/22 02:20:28;;;;;;;22.80;17.10;;;;;;;24.90;53.94;100397.77;108140;1254;71452;-65
2023/06/22 02:22:56;;;;;;;21.40;15.90;;;;;;;24.91;53.68;100392.08;108131;1257;61518;-67
2023/06/22 02:25:23;;;;;;;20.20;15.70;;;;;;;24.97;53.74;100389.42;108124;1251;60211;-68
2023/06/22 02:27:51;;;;;;;21.50;16.30;;;;;;;24.87;54.02;100392.23;108040;1251;73763;-67
2023/06/22 02:30:18;;;;;;;18.60;14.10;;;;;;;25.02;53.82;100395.42;108082;1257;68692;-66
2023/06/22 02:32:45;;;;;;;18.60;14.80;;;;;;;25.02;53.80;100394.33;108130;1251;71715;-67
2023/06/22 02:35:15;;;;;;;21.40;15.70;;;;;;;25.10;53.88;100398.05;108172;1255;61870;-68
2023/06/22 02:37:42;;;;;;;19.90;14.80;;;;;;;25.23;53.35;100393.56;108141;1251;59979;-67
2023/06/22 02:40:10;;;;;;;19.10;14.90;;;;;;;25.31;53.33;100396.84;108080;1251;73811;-66
2023/06/22 02:42:39;;;;;;;16.90;13.50;;;;;;;25.47;53.11;100395.67;108221;1251;69004;-67
2023/06/22 02:45:07;;;;;;;20.80;15.80;;;;;;;25.41;53.12;100396.43;108185;1255;72705;-67
2023/06/22 02:47:34;;;;;;;19.40;15.70;;;;;;;25.36;53.38;100402.45;108178;1253;61727;-67
2023/06/22 02:50:02;;;;;;;20.40;14.90;;;;;;;25.30;53.57;100401.42;108015;1254;60264;-67
2023/06/22 02:52:31;;;;;;;20.70;15.90;;;;;;;25.45;53.60;100401.10;108099;1254;72705;-67
2023/06/22 02:54:58;;;;;;;21.20;15.70;;;;;;;25.55;53.39;100397.03;108073;1254;70405;-66
2023/06/22 02:57:26;;;;;;;21.10;14.90;;;;;;;25.76;53.09;100397.04;108011;1254;72919;-69
2023/06/22 02:59:55;;;;;;;19.50;15.30;;;;;;;25.87;52.92;100394.88;107959;1254;61671;-69
2023/06/22 03:02:22;;;;;;;18.80;15.40;;;;;;;25.88;53.20;100396.92;108045;1254;60580;-66
2023/06/22 03:04:50;;;;;;;21.10;16.20;;;;;;;25.87;53.52;100394.54;107953;1254;74117;-68
2023/06/22 03:07:17;;;;;;;19.00;15.90;;;;;;;26.11;53.31;100395.96;108100;1251;69419;-68
2023/06/22 03:09:45;;;;;;;18.50;15.10;;;;;;;26.12;53.44;100400.13;108139;1253;72856;-68
2023/06/22 03:12:13;;;;;;;23.70;16.20;;;;;;;26.35;53.08;100398.83;108181;1252;61096;-68
2023/06/22 03:14:46;;;;;;;19.80;15.80;;;;;;;26.64;52.44;100404.05;108198;1257;60393;-67
2023/06/22 03:17:14;;;;;;;18.80;15.10;;;;;;;26.83;52.05;100401.27;108249;1251;72993;-68
2023/06/22 03:19:42;;;;;;;19.40;14.60;;;;;;;27.04;51.58;100401.29;108109;1251;70733;-66
2023/06/22 03:22:09;;;;;;;18.60;14.40;;;;;;;27.09;51.55;100402.95;108165;1254;72635;-68
2023/06/22 03:24:40;;;;;;;19.00;14.70;;;;;;;27.24;51.40;100402.85;108179;1252;60357;-67
2023/06/22 03:27:08;;;;;;;20.10;15.60;;;;;;;27.51;51.09;100405.26;108189;1252;60316;-69
2023/06/22 03:29:35;;;;;;;18.20;13.60;;;;;;;27.70;50.99;100403.27;108110;1251;72536;-68
2023/06/22 03:32:04;;;;;;;21.80;15.90;;;;;;;27.78;50.76;100404.60;108124;1250;68882;-68
2023/06/22 03:34:38;;;;;;;16.70;13.50;;;;;;;27.95;50.78;100405.27;108212;1251;72940;-67
2023/06/22 03:37:05;;;;;;;19.00;13.30;;;;;;;28.09;50.60;100400.86;108248;1251;61685;-67
2023/06/22 03:39:33;;;;;;;19.30;14.60;;;;;;;28.38;49.72;100400.58;108056;1259;60271;-67
2023/06/22 03:42:00;;;;;;;15.90;13.60;;;;;;;28.81;49.18;100399.91;108250;1256;73605;-68
2023/06/22 03:44:28;;;;;;;20.90;14.50;;;;;;;28.92;48.97;100402.73;108239;1252;70266;-69
2023/06/22 03:46:55;;;;;;;17.30;14.10;;;;;;;28.78;49.47;100403.20;108165;1251;72719;-67
2023/06/22 03:49:23;;;;;;;19.30;14.60;;;;;;;28.75;49.56;100405.80;108150;1252;61997;-67
2023/06/22 03:51:50;;;;;;;17.90;14.20;;;;;;;29.16;48.83;100402.60;108121;1252;60441;-66
2023/06/22 03:54:19;;;;;;;16.70;13.90;;;;;;;29.30;48.57;100405.16;108183;1251;73765;-67
2023/06/22 03:56:47;;;;;;;17.70;14.00;;;;;;;29.43;48.47;100403.73;108164;1251;70305;-67
2023/06/22 03:59:14;;;;;;;18.80;14.80;;;;;;;29.49;48.33;100403.98;108135;1252;71391;-68
2023/06/22 04:01:41;;;;;;;21.40;15.50;;;;;;;29.70;48.12;100400.91;108116;1251;60440;-68
2023/06/22 04:04:08;;;;;;;20.20;15.90;;;;;;;30.15;46.89;100405.33;108145;1251;60254;-67
2023/06/22 04:06:36;;;;;;;18.80;15.70;;;;;;;30.54;46.36;100408.40;108090;1256;73874;-68
2023/06/22 04:09:03;;;;;;;19.80;15.30;;;;;;;30.89;45.80;100409.00;108169;1252;69225;-68
2023/06/22 04:11:30;;;;;;;18.00;14.00;;;;;;;31.23;45.19;100408.05;108148;1256;72282;-69
2023/06/22 04:13:58;;;;;;;15.00;12.30;;;;;;;31.02;45.86;100414.71;108180;1251;61224;-68
2023/06/22 04:16:25;;;;;;;20.10;14.00;;;;;;;30.63;46.80;100416.31;108125;1251;60262;-68
2023/06/22 04:18:53;;;;;;;16.30;12.10;;;;;;;30.81;46.56;100419.00;108117;1251;72604;-68
2023/06/22 04:21:20;;;;;;;15.90;12.80;;;;;;;31.15;46.55;100419.77;108126;1256;69144;-67
2023/06/22 04:23:47;;;;;;;14.80;12.50;;;;;;;31.57;45.43;100415.97;108092;1251;72132;-69
2023/06/22 04:26:15;;;;;;;15.40;12.30;;;;;;;32.14;44.19;100417.31;108027;1252;60894;-69
2023/06/22 04:28:42;;;;;;;18.20;13.10;;;;;;;32.46;43.49;100420.94;108122;1251;60386;-68
2023/06/22 04:31:10;;;;;;;16.30;12.40;;;;;;;32.42;43.05;100424.86;108054;1251;74391;-68
2023/06/22 04:33:40;;;;;;;17.20;13.10;;;;;;;32.69;42.54;100427.22;108075;1251;69966;-68
2023/06/22 04:36:07;;;;;;;15.80;12.20;;;;;;;33.08;41.77;100424.98;108144;1251;72889;-69
2023/06/22 04:38:35;;;;;;;15.20;12.80;;;;;;;33.43;40.89;100424.38;108135;1251;60379;-68
2023/06/22 04:41:03;;;;;;;16.20;12.20;;;;;;;33.64;40.29;100429.15;108208;1256;60344;-69
2023/06/22 04:43:30;;;;;;;14.40;11.00;;;;;;;33.95;39.29;100429.38;108186;1256;65298;-68
2023/06/22 04:46:03;;;;;;;13.20;10.70;;;;;;;34.10;38.40;100428.83;108106;1256;60982;-67
2023/06/22 04:48:32;;;;;;;18.10;11.00;;;;;;;34.37;37.18;100432.71;108182;1252;62521;-69
2023/06/22 04:51:03;;;;;;;15.30;11.50;;;;;;;34.73;36.23;100437.76;108214;1251;60385;-68
2023/06/22 04:53:31;;;;;;;14.10;10.70;;;;;;;35.14;35.97;100438.23;108312;1256;60331;-67
2023/06/22 04:55:58;;;;;;;17.60;12.50;;;;;;;35.37;35.15;100439.08;108168;1251;63893;-68
2023/06/22 04:58:28;;;;;;;14.00;11.30;;;;;;;35.46;35.06;100438.39;108146;1251;61424;-67
2023/06/22 05:00:56;;;;;;;14.60;11.10;;;;;;;35.31;35.02;100438.45;108280;1256;63756;-68
2023/06/22 05:03:25;;;;;;;13.40;11.50;;;;;;;35.41;34.90;100440.64;108164;1251;60404;-69
2023/06/22 05:05:53;;;;;;;14.00;11.40;;;;;;;36.16;33.92;100443.48;108154;1251;60352;-69
2023/06/22 05:08:21;;;;;;;15.60;12.10;;;;;;;36.61;32.66;100445.41;107991;1260;65663;-68
2023/06/22 05:10:48;;;;;;;16.20;11.90;;;;;;;36.73;32.45;100444.77;108089;1256;62025;-68
2023/06/22 05:13:32;;;;;;;14.00;10.60;;;;;;;36.55;32.32;100445.45;108174;1252;63868;-72
2023/06/22 05:16:02;;;;;;;15.80;11.30;;;;;;;36.71;31.63;100447.62;108174;1254;59250;-69
2023/06/22 05:18:30;;;;;;;14.10;11.00;;;;;;;36.70;31.52;100448.05;108274;1251;60555;-69
2023/06/22 05:20:59;;;;;;;14.70;10.50;;;;;;;36.74;31.27;100447.30;108332;1253;63709;-69
2023/06/22 05:23:26;;;;;;;12.90;10.00;;;;;;;36.95;30.60;100445.37;108238;1251;61338;-69
2023/06/22 05:25:57;;;;;;;13.70;10.40;;;;;;;37.08;30.04;100442.64;108240;1257;63701;-69
2023/06/22 05:28:25;;;;;;;13.00;9.90;;;;;;;37.21;29.66;100439.95;108053;1251;59970;-69
2023/06/22 05:30:52;;;;;;;16.20;11.50;;;;;;;37.34;29.06;100434.42;108210;1257;60509;-68
2023/06/22 05:33:20;;;;;;;13.60;10.20;;;;;;;37.37;29.52;100436.09;108206;1256;64959;-70
2023/06/22 05:35:47;;;;;;;13.10;11.40;;;;;;;37.47;29.94;100433.20;108179;1251;61605;-69
2023/06/22 05:38:14;;;;;;;14.20;12.10;;;;;;;37.56;29.92;100433.61;108167;1251;63791;-69
2023/06/22 05:40:42;;;;;;;15.10;10.40;;;;;;;37.75;29.09;100433.33;108192;1252;60352;-68
2023/06/22 05:43:09;;;;;;;16.10;11.70;;;;;;;37.75;29.05;100432.56;108239;1256;59106;-69
2023/06/22 05:45:37;;;;;;;11.80;10.00;;;;;;;37.88;28.65;100434.36;108208;1250;64920;-69
2023/06/22 05:48:04;;;;;;;14.80;11.50;;;;;;;38.06;27.56;100436.97;108254;1256;61368;-67
2023/06/22 05:50:32;;;;;;;13.20;10.70;;;;;;;38.28;27.61;100431.91;108242;1256;63772;-69
2023/06/22 05:53:00;;;;;;;14.30;10.20;;;;;;;38.49;27.28;100433.79;108274;1256;59541;-68
2023/06/22 05:55:27;;;;;;;11.50;9.90;;;;;;;38.56;26.95;100433.95;108338;1256;60378;-69
2023/06/22 05:57:55;;;;;;;11.90;9.40;;;;;;;38.14;26.89;100435.15;108203;1251;64821;-66
2023/06/22 06:00:23;;;;;;;15.90;9.70;;;;;;;37.84;26.82;100433.48;108333;1251;61514;-69
2023/06/22 06:02:50;;;;;;;11.60;9.10;;;;;;;38.07;26.78;100433.40;108242;1254;63732;-69
2023/06/22 06:05:19;;;;;;;10.40;8.70;;;;;;;38.04;26.10;100429.70;108171;1251;60434;-69
2023/06/22 06:07:46;;;;;;;16.00;9.60;;;;;;;38.16;26.01;100429.48;108122;1257;59020;-70
2023/06/22 06:10:14;;;;;;;9.50;7.90;;;;;;;38.28;25.17;100428.84;108268;1251;66054;-70
2023/06/22 06:12:41;;;;;;;9.10;7.60;;;;;;;38.36;24.39;100423.55;108159;1257;60327;-73
2023/06/22 06:15:09;;;;;;;10.10;8.00;;;;;;;38.69;24.04;100429.30;108253;1257;64369;-69
2023/06/22 06:17:47;;;;;;;11.40;9.10;;;;;;;38.73;24.43;100428.52;108223;1251;60848;-69
2023/06/22 06:20:17;;;;;;;12.40;8.30;;;;;;;38.99;24.24;100425.52;108263;1251;59045;-68
2023/06/22 06:22:45;;;;;;;12.70;8.00;;;;;;;39.60;23.58;100421.22;108197;1251;65003;-69
2023/06/22 06:25:15;;;;;;;11.80;8.60;;;;;;;40.02;22.85;100419.98;108185;1251;63334;-69
2023/06/22 06:27:43;;;;;;;11.00;8.90;;;;;;;40.42;22.94;100417.48;108226;1251;63670;-70
2023/06/22 06:30:12;;;;;;;16.40;10.30;;;;;;;40.59;23.22;100412.55;108080;1251;60449;-69
2023/06/22 06:32:39;;;;;;;13.00;8.80;;;;;;;40.85;22.88;100413.31;108218;1251;60181;-70
2023/06/22 06:35:07;;;;;;;11.40;9.20;;;;;;;40.99;22.62;100411.27;108224;1252;64933;-72
2023/06/22 06:37:36;;;;;;;11.60;8.70;;;;;;;41.11;23.16;100415.13;108648;1255;62714;-70
2023/06/22 06:40:08;;;;;;;11.90;9.70;;;;;;;41.09;23.05;100418.74;108274;1255;62623;-69
2023/06/22 06:42:40;;;;;;;14.50;9.80;;;;;;;41.01;22.72;100417.84;108235;1254;60389;-69
2023/06/22 06:45:08;;;;;;;11.70;8.70;;;;;;;40.85;22.53;100416.52;108273;1251;60466;-70
2023/06/22 06:47:36;;;;;;;10.70;8.80;;;;;;;40.65;22.52;100414.89;108080;1257;64209;-71
2023/06/22 06:50:04;;;;;;;17.00;8.80;;;;;;;40.60;22.57;100414.62;108224;1257;62587;-69
2023/06/22 06:52:32;;;;;;;10.20;7.90;;;;;;;40.82;22.15;100416.02;108338;1251;62717;-71
2023/06/22 06:55:00;;;;;;;11.30;8.20;;;;;;;40.99;21.48;100413.64;108147;1256;60602;-70
2023/06/22 06:57:28;;;;;;;9.50;8.00;;;;;;;41.15;21.65;100409.01;108191;1256;60478;-71
2023/06/22 06:59:56;;;;;;;11.80;7.50;;;;;;;41.16;21.35;100409.69;108164;1253;64076;-71
2023/06/22 07:02:27;;;;;;;8.70;7.60;;;;;;;40.80;21.19;100409.17;108185;1251;61637;-70
2023/06/22 07:04:58;;;;;;;11.90;8.00;;;;;;;40.94;21.08;100410.04;108144;1256;63904;-70
2023/06/22 07:07:25;;;;;;;11.20;7.90;;;;;;;41.31;20.75;100409.85;108197;1251;60415;-70
2023/06/22 07:09:52;;;;;;;10.70;7.90;;;;;;;41.36;20.33;100404.64;108062;1251;60444;-70
2023/06/22 07:12:20;;;;;;;11.60;7.10;;;;;;;41.11;20.61;100408.89;108081;1251;64901;-69
2023/06/22 07:14:47;;;;;;;9.00;7.10;;;;;;;40.97;20.28;100414.45;108167;1251;60525;-69
2023/06/22 07:17:14;;;;;;;10.10;6.80;;;;;;;40.69;20.28;100414.35;108107;1254;63850;-69
2023/06/22 07:19:42;;;;;;;9.40;7.30;;;;;;;40.64;19.97;100413.24;108114;1257;60392;-71
2023/06/22 07:22:09;;;;;;;9.90;7.70;;;;;;;40.80;20.16;100409.70;108159;1251;60379;-69
2023/06/22 07:24:37;;;;;;;8.40;6.70;;;;;;;41.15;19.94;100406.06;108126;1251;63640;-70
2023/06/22 07:27:06;;;;;;;10.20;6.80;;;;;;;41.58;19.50;100403.29;108205;1251;60357;-70
2023/06/22 07:29:35;;;;;;;13.70;6.90;;;;;;;42.15;19.00;100403.48;108122;1251;63748;-70
2023/06/22 07:32:04;;;;;;;8.20;6.80;;;;;;;42.35;18.11;100403.77;108159;1257;59653;-70
2023/06/22 07:34:33;;;;;;;10.60;6.80;;;;;;;42.02;17.79;100407.02;108111;1251;59148;-69
2023/06/22 07:37:01;;;;;;;8.50;7.00;;;;;;;41.75;17.76;100406.46;108106;1251;64263;-69
2023/06/22 07:39:28;;;;;;;8.60;6.60;;;;;;;41.99;17.84;100402.84;108122;1251;61833;-69
2023/06/22 07:41:55;;;;;;;8.80;7.10;;;;;;;41.87;17.98;100405.79;108153;1253;62882;-67
2023/06/22 07:47:28;;;;;;;12.10;7.60;;;;;;;40.10;20.90;100414.60;104472;1292;603500;-69
2023/06/22 07:49:57;;;;;;;9.00;7.30;;;;;;;41.43;19.72;100410.91;106981;1271;59077;-69
2023/06/22 07:52:25;;;;;;;8.70;6.50;;;;;;;41.53;18.93;100410.08;107808;1271;59239;-68
2023/06/22 07:54:52;;;;;;;11.10;6.90;;;;;;;41.35;18.52;100408.27;106992;1271;63603;-70
2023/06/22 07:57:19;;;;;;;11.90;6.90;;;;;;;41.42;17.71;100412.51;107157;1269;59212;-69
2023/06/22 07:59:45;;;;;;;11.90;7.70;;;;;;;41.59;17.41;100411.65;106980;1269;217010;-70
2023/06/22 08:02:12;;;;;;;16.30;7.80;;;;;;;41.78;17.29;100413.64;107214;1266;59228;-70
2023/06/22 08:04:41;;;;;;;8.80;6.70;;;;;;;41.54;17.58;100420.38;107206;1266;59249;-68
2023/06/22 08:07:07;;;;;;;12.40;6.20;;;;;;;41.39;17.41;100420.70;107361;1266;63524;-69
2023/06/22 08:09:35;;;;;;;10.40;7.30;;;;;;;41.56;16.69;100418.63;107229;1268;61538;-69
2023/06/22 08:12:02;;;;;;;8.70;6.40;;;;;;;41.84;16.72;100418.41;107171;1266;63884;-68
2023/06/22 08:14:29;;;;;;;7.20;6.10;;;;;;;42.01;16.75;100419.30;107219;1266;60041;-69
2023/06/22 08:16:56;;;;;;;9.10;6.50;;;;;;;41.97;16.20;100423.13;107232;1268;59152;-70
2023/06/22 08:19:22;;;;;;;9.60;6.30;;;;;;;41.78;15.89;100424.46;107178;1267;64413;-70
2023/06/22 08:21:49;;;;;;;7.80;6.90;;;;;;;41.59;16.04;100425.54;107219;1265;59143;-70
2023/06/22 08:24:15;;;;;;;11.60;6.80;;;;;;;41.04;15.97;100428.30;107154;1265;64121;-70
2023/06/22 08:26:42;;;;;;;8.20;6.90;;;;;;;40.65;16.40;100428.14;107220;1266;59574;-68
2023/06/22 08:29:09;;;;;;;8.30;7.00;;;;;;;40.39;16.60;100429.45;107188;1267;59971;-69
2023/06/22 08:31:35;;;;;;;8.50;6.50;;;;;;;40.50;17.01;100427.91;107170;1268;62980;-69
2023/06/22 08:34:02;;;;;;;8.90;6.90;;;;;;;40.77;17.30;100426.31;107196;1266;59624;-69
2023/06/22 08:36:35;;;;;;;12.40;7.10;;;;;;;41.02;17.15;100427.80;107238;1268;64147;-70
2023/06/22 08:39:02;;;;;;;11.60;6.80;;;;;;;41.14;17.30;100426.94;107247;1268;59655;-69
2023/06/22 08:41:29;;;;;;;11.20;6.90;;;;;;;41.13;17.10;100426.09;107272;1268;59659;-69
2023/06/22 08:43:57;;;;;;;9.00;7.10;;;;;;;41.18;17.30;100426.73;107424;1265;64201;-68
2023/06/22 08:46:29;;;;;;;8.50;6.80;;;;;;;41.32;17.24;100423.86;107544;1263;62108;-66
2023/06/22 08:48:57;;;;;;;9.30;7.20;;;;;;;41.49;17.03;100424.05;107603;1261;63214;-69
2023/06/22 08:51:24;;;;;;;8.10;6.90;;;;;;;41.47;17.09;100419.49;107576;1261;59522;-70
2023/06/22 08:53:52;;;;;;;12.60;7.20;;;;;;;41.46;17.21;100418.88;107614;1261;59225;-69
2023/06/22 08:56:19;;;;;;;13.70;6.50;;;;;;;41.43;16.73;100419.77;107644;1260;64537;-70
2023/06/22 08:58:45;;;;;;;9.60;6.90;;;;;;;41.29;16.61;100418.67;107671;1260;60081;-68
2023/06/22 09:01:12;;;;;;;8.90;6.20;;;;;;;41.35;16.61;100416.23;107555;1261;59540;-69
2023/06/22 09:03:38;;;;;;;7.90;6.90;;;;;;;41.61;16.93;100413.83;107595;1261;59587;-69
2023/06/22 09:06:05;;;;;;;8.20;7.40;;;;;;;42.02;17.36;100409.74;107550;1260;59583;-70
2023/06/22 09:08:32;;;;;;;8.00;7.20;;;;;;;42.35;17.46;100412.85;107607;1259;64559;-70
2023/06/22 09:10:59;;;;;;;15.10;7.20;;;;;;;42.46;17.21;100407.83;107544;1260;62657;-70
2023/06/22 09:13:26;;;;;;;8.20;6.60;;;;;;;42.45;17.14;100405.77;107601;1261;59656;-68
2023/06/22 09:15:52;;;;;;;9.50;6.70;;;;;;;42.42;16.28;100406.11;107606;1259;59681;-68
2023/06/22 09:18:19;;;;;;;18.10;7.20;;;;;;;42.27;15.01;100409.27;107586;1263;59552;-70
2023/06/22 09:20:46;;;;;;;10.30;7.10;;;;;;;42.06;15.34;100406.71;107589;1262;64423;-69
2023/06/22 09:23:12;;;;;;;9.40;6.40;;;;;;;42.39;16.34;100402.66;107646;1260;60346;-68
2023/06/22 09:25:40;;;;;;;9.10;6.60;;;;;;;42.77;15.51;100401.64;107702;1261;63403;-70
2023/06/22 09:28:07;;;;;;;8.70;6.20;;;;;;;42.80;14.89;100403.20;107628;1260;59498;-71
2023/06/22 09:30:33;;;;;;;7.70;6.50;;;;;;;42.31;14.97;100404.66;107621;1257;59552;-69
2023/06/22 09:33:01;;;;;;;7.40;6.40;;;;;;;42.33;14.91;100401.25;107635;1257;59699;-69
2023/06/22 09:35:27;;;;;;;8.70;6.50;;;;;;;42.72;14.95;100400.21;107611;1257;62016;-69
2023/06/22 09:37:54;;;;;;;8.00;6.70;;;;;;;42.96;14.81;100402.31;107634;1258;63957;-69
2023/06/22 09:40:22;;;;;;;8.70;6.90;;;;;;;43.13;14.94;100402.31;107617;1258;59387;-69
2023/06/22 09:42:49;;;;;;;7.20;6.20;;;;;;;43.04;15.30;100400.87;107653;1257;59536;-69
2023/06/22 09:45:16;;;;;;;9.40;7.10;;;;;;;43.04;15.66;100403.92;107597;1262;59609;-70
2023/06/22 09:47:42;;;;;;;7.60;6.30;;;;;;;43.42;15.52;100397.20;107575;1257;61384;-70
2023/06/22 09:50:09;;;;;;;9.80;6.50;;;;;;;43.33;15.55;100400.76;107473;1257;64089;-71
2023/06/22 09:52:36;;;;;;;9.60;6.90;;;;;;;43.30;15.18;100397.80;107579;1257;59503;-70
2023/06/22 09:55:06;;;;;;;7.50;6.10;;;;;;;43.84;15.31;100398.26;107628;1257;59715;-70
2023/06/22 09:57:33;;;;;;;6.80;6.10;;;;;;;43.60;14.06;100398.25;107677;1257;64306;-69
2023/06/22 10:00:00;;;;;;;9.80;6.50;;;;;;;43.32;13.91;100396.20;107566;1257;62127;-69
2023/06/22 10:02:27;;;;;;;16.10;7.80;;;;;;;43.02;15.17;100398.70;107603;1257;64538;-69
2023/06/22 10:04:53;;;;;;;9.70;6.30;;;;;;;42.83;16.08;100394.49;107603;1257;59023;-70
2023/06/22 10:07:20;;;;;;;10.20;6.70;;;;;;;42.55;16.08;100389.44;107598;1257;59485;-69
2023/06/22 10:09:47;;;;;;;9.60;7.00;;;;;;;42.74;15.80;100383.66;107647;1257;65605;-71
2023/06/22 10:12:14;;;;;;;8.50;6.90;;;;;;;42.87;15.59;100380.59;107626;1257;63204;-71
2023/06/22 10:14:40;;;;;;;6.90;6.20;;;;;;;42.93;16.29;100379.52;107632;1257;59170;-70
2023/06/22 10:17:07;;;;;;;9.60;7.10;;;;;;;42.17;16.70;100380.50;107451;1257;59541;-70
2023/06/22 10:19:36;;;;;;;9.00;6.50;;;;;;;41.57;16.63;100377.19;107602;1257;59663;-70
2023/06/22 10:22:05;;;;;;;8.50;6.90;;;;;;;41.24;16.65;100372.91;107586;1257;63967;-70
2023/06/22 10:24:32;;;;;;;7.60;5.70;;;;;;;41.21;16.32;100369.81;107586;1262;61467;-68
2023/06/22 10:26:59;;;;;;;9.80;7.10;;;;;;;41.44;16.09;100363.46;107616;1257;64094;-70
2023/06/22 10:29:26;;;;;;;8.60;6.40;;;;;;;41.77;15.66;100360.65;107626;1258;59425;-68
2023/06/22 10:31:52;;;;;;;9.20;7.00;;;;;;;41.98;15.91;100360.13;107579;1257;59124;-69
2023/06/22 10:34:18;;;;;;;8.10;6.50;;;;;;;41.79;16.21;100358.46;107494;1258;59128;-68
2023/06/22 10:36:48;;;;;;;9.10;7.20;;;;;;;41.35;16.31;100356.42;107563;1257;59533;-69
2023/06/22 10:39:15;;;;;;;8.30;6.80;;;;;;;41.25;16.11;100358.21;107605;1257;62734;-69
2023/06/22 10:41:42;;;;;;;19.10;7.30;;;;;;;41.02;16.10;100354.50;107621;1257;59116;-69
2023/06/22 10:44:08;;;;;;;9.70;6.70;;;;;;;40.74;15.98;100352.48;107500;1257;59702;-69
2023/06/22 10:46:35;;;;;;;7.40;6.40;;;;;;;40.59;16.22;100351.41;107701;1257;64422;-69
2023/06/22 10:49:02;;;;;;;8.80;6.20;;;;;;;40.94;16.29;100347.35;107635;1257;62952;-69
2023/06/22 10:51:29;;;;;;;8.20;7.10;;;;;;;41.17;16.46;100341.75;107634;1258;63935;-69
2023/06/22 10:53:57;;;;;;;9.30;7.00;;;;;;;41.61;16.44;100335.29;107635;1261;59489;-69
2023/06/22 10:56:24;;;;;;;8.70;7.40;;;;;;;42.02;16.80;100333.90;107639;1257;59813;-69
2023/06/22 10:58:50;;;;;;;10.80;7.80;;;;;;;42.34;17.11;100333.46;107602;1257;64510;-70
2023/06/22 11:01:17;;;;;;;12.20;7.70;;;;;;;42.16;17.15;100334.27;107670;1258;60725;-70
2023/06/22 11:04:01;;;;;;;13.70;7.60;;;;;;;41.76;17.13;100330.33;107621;1257;63706;-69
2023/06/22 11:06:29;;;;;;;11.40;7.40;;;;;;;41.94;17.15;100324.36;107652;1257;59496;-69
2023/06/22 11:08:57;;;;;;;8.70;6.70;;;;;;;42.45;16.88;100325.66;107678;1257;59715;-69
2023/06/22 11:11:38;;;;;;;10.30;6.70;;;;;;;42.45;17.01;100324.95;108425;1257;64453;-68
2023/06/22 11:14:05;;;;;;;7.90;6.70;;;;;;;42.50;17.11;100324.10;107640;1257;61898;-70